createdAt,value
2022-11-27T00:02:26.883Z,36.80
2022-11-27T00:04:54.031Z,39.87
2022-11-27T00:07:21.245Z,40.97
2022-11-27T00:09:48.388Z,43.13
2022-11-27T00:12:15.564Z,39.07
2022-11-27T00:14:42.706Z,33.27
2022-11-27T00:17:09.860Z,30.73
2022-11-27T00:19:37.334Z,29.07
2022-11-27T00:22:07.796Z,28.40
2022-11-27T00:24:34.908Z,26.37
2022-11-27T00:27:02.107Z,26.90
2022-11-27T00:29:30.259Z,29.73
2022-11-27T00:31:57.400Z,26.37
2022-11-27T00:34:24.580Z,28.20
2022-11-27T00:36:51.650Z,26.10
2022-11-27T00:39:19.056Z,24.80
2022-11-27T00:41:46.262Z,22.77
2022-11-27T00:44:14.166Z,29.97
2022-11-27T00:46:44.203Z,26.20
2022-11-27T00:49:11.810Z,22.90
2022-11-27T00:51:38.989Z,19.37
2022-11-27T00:54:06.236Z,18.83
2022-11-27T00:56:34.357Z,19.13
2022-11-27T00:59:01.570Z,18.93
2022-11-27T01:01:35.766Z,17.60
2022-11-27T01:04:03.241Z,18.90
2022-11-27T01:06:30.487Z,18.57
2022-11-27T01:08:58.121Z,16.20
2022-11-27T01:11:26.159Z,15.77
2022-11-27T01:13:53.463Z,15.57
2022-11-27T01:16:21.367Z,15.53
2022-11-27T01:18:48.829Z,13.97
2022-11-27T01:21:16.713Z,14.47
2022-11-27T01:23:43.866Z,15.37
2022-11-27T01:26:11.306Z,13.20
2022-11-27T01:28:41.334Z,13.00
2022-11-27T01:31:09.341Z,12.20
2022-11-27T01:33:36.596Z,18.63
2022-11-27T01:36:04.880Z,13.27
2022-11-27T01:38:32.126Z,14.00
2022-11-27T01:41:06.144Z,13.67
2022-11-27T01:43:39.547Z,15.23
2022-11-27T01:46:10.597Z,14.97
2022-11-27T01:48:37.762Z,14.87
2022-11-27T01:51:04.970Z,18.77
2022-11-27T01:53:34.323Z,15.93
2022-11-27T01:56:01.442Z,12.97
2022-11-27T01:58:29.076Z,13.90
2022-11-27T02:00:56.505Z,12.73
2022-11-27T02:03:23.922Z,13.63
2022-11-27T02:05:51.092Z,15.20
2022-11-27T02:08:18.424Z,15.10
2022-11-27T02:10:48.162Z,13.53
2022-11-27T02:13:18.877Z,13.43
2022-11-27T02:15:55.001Z,12.43
2022-11-27T02:18:25.319Z,12.30
2022-11-27T02:20:58.228Z,12.10
2022-11-27T02:23:25.472Z,13.53
2022-11-27T02:26:12.865Z,10.70
2022-11-27T02:28:58.513Z,12.20
2022-11-27T02:31:35.031Z,10.30
2022-11-27T02:34:12.271Z,11.57
2022-11-27T02:36:39.341Z,10.40
2022-11-27T02:39:08.512Z,11.73
2022-11-27T02:41:38.547Z,10.67
2022-11-27T02:44:05.649Z,12.10
2022-11-27T02:46:32.908Z,11.97
2022-11-27T02:49:02.903Z,11.80
2022-11-27T02:51:31.394Z,12.40
2022-11-27T02:53:59.603Z,11.27
2022-11-27T02:56:27.492Z,11.90
2022-11-27T02:58:55.841Z,12.07
2022-11-27T03:01:23.392Z,9.80
2022-11-27T03:03:52.808Z,11.10
2022-11-27T03:06:21.118Z,11.80
2022-11-27T03:08:48.257Z,10.00
2022-11-27T03:11:15.686Z,11.20
2022-11-27T03:13:54.190Z,11.30
2022-11-27T03:16:30.307Z,10.40
2022-11-27T03:19:17.460Z,10.23
2022-11-27T03:21:46.090Z,9.60
2022-11-27T03:24:13.495Z,9.90
2022-11-27T03:26:40.724Z,9.30
2022-11-27T03:29:12.509Z,9.30
2022-11-27T03:31:39.700Z,9.83
2022-11-27T03:34:06.867Z,8.90
2022-11-27T03:36:34.063Z,9.30
2022-11-27T03:39:01.234Z,10.50
2022-11-27T03:41:28.407Z,8.77
2022-11-27T03:44:15.775Z,10.80
2022-11-27T03:46:45.858Z,7.50
2022-11-27T03:49:23.002Z,10.00
2022-11-27T03:51:55.037Z,8.60
2022-11-27T03:54:22.129Z,7.80
2022-11-27T03:57:07.811Z,8.17
2022-11-27T03:59:35.983Z,7.87
2022-11-27T04:02:03.133Z,8.10
2022-11-27T04:04:30.335Z,8.33
2022-11-27T04:06:57.456Z,8.83
2022-11-27T04:09:25.486Z,8.43
2022-11-27T04:11:52.687Z,7.40
2022-11-27T04:14:19.793Z,10.07
2022-11-27T04:16:46.939Z,8.90
2022-11-27T04:19:14.132Z,9.33
2022-11-27T04:21:41.219Z,9.47
2022-11-27T04:24:08.320Z,9.33
2022-11-27T04:26:35.455Z,10.00
2022-11-27T04:29:02.567Z,8.17
2022-11-27T04:31:29.738Z,7.70
2022-11-27T04:33:56.839Z,10.70
2022-11-27T04:36:23.958Z,9.40
2022-11-27T04:38:51.027Z,8.20
2022-11-27T04:41:18.187Z,10.23
2022-11-27T04:43:45.313Z,8.33
2022-11-27T04:46:12.500Z,8.40
2022-11-27T04:48:39.609Z,10.10
2022-11-27T04:51:06.805Z,8.93
2022-11-27T04:53:33.974Z,8.30
2022-11-27T04:56:01.056Z,9.13
2022-11-27T04:58:28.166Z,8.47
2022-11-27T05:00:55.342Z,8.20
2022-11-27T05:03:22.568Z,7.30
2022-11-27T05:06:07.843Z,7.77
2022-11-27T05:08:35.159Z,7.63
2022-11-27T05:11:06.267Z,7.80
2022-11-27T05:13:33.445Z,7.90
2022-11-27T05:16:00.568Z,6.70
2022-11-27T05:18:27.807Z,7.73
2022-11-27T05:20:58.531Z,8.80
2022-11-27T05:23:25.889Z,8.30
2022-11-27T05:25:53.119Z,7.67
2022-11-27T05:28:25.175Z,7.70
2022-11-27T05:30:54.141Z,8.53
2022-11-27T05:33:21.371Z,8.27
2022-11-27T05:35:48.586Z,8.83
2022-11-27T05:38:15.662Z,6.33
2022-11-27T05:40:42.781Z,9.93
2022-11-27T05:43:10.012Z,7.87
2022-11-27T05:45:37.985Z,7.20
2022-11-27T05:48:05.209Z,7.57
2022-11-27T05:50:32.306Z,7.90
2022-11-27T05:52:59.466Z,7.37
2022-11-27T05:55:26.658Z,8.10
2022-11-27T05:57:53.846Z,7.83
2022-11-27T06:00:21.082Z,8.90
2022-11-27T06:02:48.287Z,7.47
2022-11-27T06:05:15.474Z,8.17
2022-11-27T06:07:42.682Z,7.70
2022-11-27T06:10:10.075Z,7.97
2022-11-27T06:12:37.239Z,6.60
2022-11-27T06:15:04.489Z,8.27
2022-11-27T06:17:31.596Z,7.50
2022-11-27T06:19:58.690Z,9.07
2022-11-27T06:22:25.868Z,7.00
2022-11-27T06:24:52.982Z,7.10
2022-11-27T06:27:20.075Z,8.07
2022-11-27T06:29:47.242Z,7.77
2022-11-27T06:32:14.335Z,7.30
2022-11-27T06:34:41.793Z,7.30
2022-11-27T06:37:12.989Z,9.37
2022-11-27T06:39:40.546Z,8.17
2022-11-27T06:42:07.619Z,8.93
2022-11-27T06:44:34.757Z,7.13
2022-11-27T06:47:01.886Z,8.33
2022-11-27T06:49:28.966Z,7.10
2022-11-27T06:51:56.064Z,7.23
2022-11-27T06:54:23.289Z,8.00
2022-11-27T06:56:51.122Z,6.80
2022-11-27T06:59:18.361Z,7.37
2022-11-27T07:01:45.633Z,7.60
2022-11-27T07:04:13.207Z,7.73
2022-11-27T07:06:40.571Z,7.00
2022-11-27T07:09:07.712Z,7.30
2022-11-27T07:11:34.971Z,9.00
2022-11-27T07:14:02.641Z,8.60
2022-11-27T07:16:30.721Z,6.83
2022-11-27T07:19:02.476Z,6.93
2022-11-27T07:21:29.705Z,7.10
2022-11-27T07:23:56.806Z,9.13
2022-11-27T07:26:27.411Z,8.43
2022-11-27T07:28:54.570Z,8.13
2022-11-27T07:31:22.734Z,7.47
2022-11-27T07:33:51.806Z,7.30
2022-11-27T07:36:22.057Z,8.00
2022-11-27T07:38:49.166Z,7.30
2022-11-27T07:41:16.278Z,8.47
2022-11-27T07:43:43.787Z,8.20
2022-11-27T07:46:17.997Z,8.40
2022-11-27T07:48:45.367Z,7.13
2022-11-27T07:51:13.211Z,7.57
2022-11-27T07:53:40.710Z,8.70
2022-11-27T07:56:08.035Z,8.70
2022-11-27T07:58:35.159Z,10.20
2022-11-27T08:01:02.373Z,8.60
2022-11-27T08:03:29.527Z,11.33
2022-11-27T08:05:56.795Z,10.10
2022-11-27T08:08:23.892Z,9.10
2022-11-27T08:10:51.011Z,9.43
2022-11-27T08:13:18.185Z,9.27
2022-11-27T08:15:46.380Z,10.00
2022-11-27T08:18:13.638Z,10.13
2022-11-27T08:20:40.745Z,10.63
2022-11-27T08:23:08.009Z,10.83
2022-11-27T08:25:35.149Z,11.73
2022-11-27T08:28:02.414Z,10.97
2022-11-27T08:30:29.573Z,9.40
2022-11-27T08:32:56.668Z,11.87
2022-11-27T08:35:23.866Z,15.47
2022-11-27T08:37:51.410Z,18.47
2022-11-27T08:40:18.660Z,12.80
2022-11-27T08:42:45.795Z,16.47
2022-11-27T08:45:13.062Z,13.43
2022-11-27T08:47:40.362Z,11.70
2022-11-27T08:50:07.850Z,11.57
2022-11-27T08:52:35.021Z,11.83
2022-11-27T08:55:02.221Z,14.97
2022-11-27T08:57:29.383Z,14.83
2022-11-27T08:59:56.564Z,16.37
2022-11-27T09:02:23.862Z,12.87
2022-11-27T09:04:50.956Z,11.00
2022-11-27T09:07:18.096Z,8.80
2022-11-27T09:09:45.255Z,9.53
2022-11-27T09:12:12.416Z,8.90
2022-11-27T09:14:40.144Z,8.27
2022-11-27T09:17:07.763Z,8.07
2022-11-27T09:19:34.923Z,9.23
2022-11-27T09:22:02.311Z,9.70
2022-11-27T09:24:29.422Z,9.03
2022-11-27T09:26:56.522Z,9.63
2022-11-27T09:29:23.707Z,8.83
2022-11-27T09:31:51.373Z,9.47
2022-11-27T09:34:18.718Z,9.03
2022-11-27T09:36:45.931Z,10.70
2022-11-27T09:39:14.165Z,10.00
2022-11-27T09:41:52.035Z,11.63
2022-11-27T09:44:25.425Z,10.27
2022-11-27T09:46:53.067Z,10.13
2022-11-27T09:49:22.035Z,10.27
2022-11-27T09:52:08.327Z,10.13
2022-11-27T09:54:52.205Z,10.27
2022-11-27T09:57:20.083Z,15.13
2022-11-27T09:59:49.327Z,12.20
2022-11-27T10:02:17.981Z,13.53
2022-11-27T10:05:12.103Z,12.90
2022-11-27T10:07:55.868Z,11.10
2022-11-27T10:10:34.969Z,10.47
2022-11-27T10:13:05.033Z,16.87
2022-11-27T10:15:39.496Z,10.70
2022-11-27T10:18:09.964Z,28.00
2022-11-27T10:20:39.833Z,12.33
2022-11-27T10:23:22.646Z,14.27
2022-11-27T10:25:50.683Z,12.87
2022-11-27T10:28:27.075Z,9.90
2022-11-27T10:30:56.035Z,10.63
2022-11-27T10:33:25.038Z,9.33
2022-11-27T10:35:52.131Z,10.17
2022-11-27T10:38:23.010Z,10.70
2022-11-27T10:41:05.472Z,10.57
2022-11-27T10:43:32.553Z,11.07
2022-11-27T10:45:59.708Z,10.50
2022-11-27T10:48:28.463Z,12.30
2022-11-27T10:50:55.660Z,10.20
2022-11-27T10:53:25.964Z,12.53
2022-11-27T10:56:05.617Z,9.30
2022-11-27T10:58:32.752Z,9.53
2022-11-27T11:01:07.111Z,11.10
2022-11-27T11:03:34.332Z,11.10
2022-11-27T11:08:50.118Z,11.20
2022-11-27T11:11:25.462Z,11.70
2022-11-27T11:13:52.726Z,19.40
2022-11-27T11:16:24.313Z,14.30
2022-11-27T11:18:52.572Z,12.70
2022-11-27T11:21:20.589Z,11.10
2022-11-27T11:23:52.605Z,11.10
2022-11-27T11:26:32.814Z,10.30
2022-11-27T11:29:00.596Z,9.30
2022-11-27T11:31:34.332Z,11.10
2022-11-27T11:34:02.433Z,11.00
2022-11-27T11:36:31.506Z,10.97
2022-11-27T11:38:58.638Z,11.83
2022-11-27T11:41:25.853Z,11.57
2022-11-27T11:43:53.883Z,12.00
2022-11-27T11:46:22.888Z,10.80
2022-11-27T11:48:54.108Z,11.87
2022-11-27T11:51:29.161Z,10.57
2022-11-27T11:54:06.894Z,11.57
2022-11-27T11:56:34.878Z,11.07
2022-11-27T11:59:20.962Z,12.10
2022-11-27T12:01:48.132Z,10.90
2022-11-27T12:04:34.293Z,10.50
2022-11-27T12:07:04.533Z,10.20
2022-11-27T12:09:31.667Z,11.60
2022-11-27T12:12:01.211Z,11.17
2022-11-27T12:15:00.979Z,9.73
2022-11-27T12:17:37.020Z,10.00
2022-11-27T12:20:04.465Z,11.00
2022-11-27T12:22:31.700Z,10.50
2022-11-27T12:25:06.552Z,9.83
2022-11-27T12:27:36.469Z,10.03
2022-11-27T12:30:13.684Z,9.50
2022-11-27T12:32:43.806Z,8.93
2022-11-27T12:35:29.693Z,9.90
2022-11-27T12:38:15.947Z,10.63
2022-11-27T12:40:49.079Z,8.80
2022-11-27T12:43:28.489Z,8.70
2022-11-27T12:46:01.772Z,8.90
2022-11-27T12:48:32.708Z,9.30
2022-11-27T12:51:01.668Z,8.97
2022-11-27T12:53:29.496Z,8.53
2022-11-27T12:56:00.571Z,8.13
2022-11-27T12:58:28.954Z,8.70
2022-11-27T13:01:00.571Z,7.70
2022-11-27T13:03:43.150Z,8.83
2022-11-27T13:06:15.001Z,7.80
2022-11-27T13:08:52.576Z,8.17
2022-11-27T13:11:20.230Z,9.03
2022-11-27T13:13:51.513Z,9.00
2022-11-27T13:16:20.119Z,7.30
2022-11-27T13:18:51.703Z,8.90
2022-11-27T13:21:20.432Z,10.80
2022-11-27T13:23:47.530Z,9.13
2022-11-27T13:26:26.578Z,12.97
2022-11-27T13:28:55.013Z,8.77
2022-11-27T13:31:23.284Z,8.80
2022-11-27T13:33:50.586Z,9.10
2022-11-27T13:36:33.377Z,9.23
2022-11-27T13:39:02.902Z,8.63
2022-11-27T13:41:33.918Z,10.57
2022-11-27T13:44:01.079Z,10.77
2022-11-27T13:46:28.931Z,10.70
2022-11-27T13:48:56.877Z,11.00
2022-11-27T13:51:28.333Z,9.03
2022-11-27T13:53:55.499Z,9.80
2022-11-27T13:56:30.447Z,10.30
2022-11-27T13:58:57.605Z,10.10
2022-11-27T14:01:25.169Z,8.80
2022-11-27T14:03:52.398Z,8.73
2022-11-27T14:06:26.967Z,9.53
2022-11-27T14:09:00.747Z,9.53
2022-11-27T14:12:00.238Z,8.90
2022-11-27T14:14:27.633Z,9.17
2022-11-27T14:17:04.974Z,8.70
2022-11-27T14:19:34.589Z,8.30
2022-11-27T14:22:02.296Z,9.50
2022-11-27T14:24:41.030Z,9.93
2022-11-27T14:27:16.597Z,10.37
2022-11-27T14:29:43.807Z,9.93
2022-11-27T14:32:11.681Z,9.50
2022-11-27T14:34:39.276Z,9.67
2022-11-27T14:37:06.663Z,9.63
2022-11-27T14:39:34.598Z,8.23
2022-11-27T14:42:02.560Z,10.07
2022-11-27T14:44:29.701Z,9.10
2022-11-27T14:46:57.156Z,8.00
2022-11-27T14:49:25.142Z,9.43
2022-11-27T14:51:52.343Z,10.60
2022-11-27T14:54:26.235Z,10.00
2022-11-27T14:56:53.824Z,9.60
2022-11-27T14:59:21.608Z,9.50
2022-11-27T15:01:58.854Z,10.23
2022-11-27T15:04:27.141Z,9.40
2022-11-27T15:06:55.615Z,9.83
2022-11-27T15:09:43.190Z,8.70
2022-11-27T15:12:29.314Z,10.43
2022-11-27T15:15:04.080Z,9.33
2022-11-27T15:17:35.652Z,8.70
2022-11-27T15:20:04.127Z,8.70
2022-11-27T15:22:33.416Z,9.67
2022-11-27T15:25:01.017Z,9.40
2022-11-27T15:27:28.320Z,10.10
2022-11-27T15:29:55.528Z,9.70
2022-11-27T15:32:26.471Z,10.20
2022-11-27T15:34:53.926Z,10.30
2022-11-27T15:37:21.027Z,9.77
2022-11-27T15:39:51.868Z,10.70
2022-11-27T15:42:19.424Z,9.70
2022-11-27T15:44:46.628Z,10.67
2022-11-27T15:47:23.903Z,11.30
2022-11-27T15:49:51.405Z,11.60
2022-11-27T15:52:18.657Z,11.20
2022-11-27T15:54:45.769Z,11.43
2022-11-27T15:57:13.201Z,13.37
2022-11-27T15:59:40.295Z,10.87
2022-11-27T16:02:07.486Z,12.77
2022-11-27T16:04:34.698Z,12.73
2022-11-27T16:07:01.875Z,12.33
2022-11-27T16:09:29.043Z,13.73
2022-11-27T16:11:56.979Z,13.80
2022-11-27T16:14:24.307Z,12.00
2022-11-27T16:16:51.528Z,12.37
2022-11-27T16:19:18.663Z,11.17
2022-11-27T16:21:45.815Z,12.93
2022-11-27T16:24:13.578Z,13.20
2022-11-27T16:26:40.726Z,12.47
2022-11-27T16:29:07.924Z,12.67
2022-11-27T16:31:35.077Z,12.97
2022-11-27T16:34:03.421Z,13.27
2022-11-27T16:36:30.518Z,11.37
2022-11-27T16:38:57.753Z,12.93
2022-11-27T16:41:25.037Z,15.00
2022-11-27T16:43:52.605Z,14.00
2022-11-27T16:46:19.861Z,13.17
2022-11-27T16:48:47.133Z,13.23
2022-11-27T16:51:15.667Z,14.70
2022-11-27T16:53:43.664Z,15.10
2022-11-27T16:56:11.020Z,16.80
2022-11-27T16:58:38.662Z,14.57
2022-11-27T17:01:09.348Z,13.93
2022-11-27T17:03:36.703Z,13.80
2022-11-27T17:06:16.851Z,14.47
2022-11-27T17:08:43.983Z,14.23
2022-11-27T17:11:14.780Z,14.60
2022-11-27T17:13:41.984Z,14.67
2022-11-27T17:16:09.093Z,14.30
2022-11-27T17:18:42.611Z,12.83
2022-11-27T17:21:10.430Z,13.00
2022-11-27T17:23:39.035Z,14.60
2022-11-27T17:26:09.511Z,15.70
2022-11-27T17:28:36.850Z,13.50
2022-11-27T17:31:04.096Z,13.50
2022-11-27T17:33:31.299Z,13.33
2022-11-27T17:35:58.453Z,12.57
2022-11-27T17:38:25.533Z,11.30
2022-11-27T17:40:52.670Z,11.17
2022-11-27T17:43:19.742Z,13.83
2022-11-27T17:45:46.916Z,13.57
2022-11-27T17:48:14.054Z,12.60
2022-11-27T17:50:41.158Z,12.93
2022-11-27T17:53:08.307Z,14.00
2022-11-27T17:55:35.539Z,13.50
2022-11-27T17:58:04.869Z,13.50
2022-11-27T18:00:33.631Z,12.93
2022-11-27T18:03:04.726Z,12.60
2022-11-27T18:05:37.439Z,12.60
2022-11-27T18:08:04.879Z,12.40
2022-11-27T18:10:33.118Z,12.53
2022-11-27T18:13:00.225Z,13.00
2022-11-27T18:15:27.298Z,11.87
2022-11-27T18:17:54.431Z,11.37
2022-11-27T18:20:21.612Z,13.30
2022-11-27T18:22:48.750Z,13.50
2022-11-27T18:25:15.877Z,12.80
2022-11-27T18:27:42.983Z,13.33
2022-11-27T18:30:10.582Z,12.73
2022-11-27T18:32:38.046Z,15.60
2022-11-27T18:35:05.419Z,14.63
2022-11-27T18:37:32.536Z,17.83
2022-11-27T18:39:59.599Z,15.80
2022-11-27T18:42:26.894Z,13.33
2022-11-27T18:44:53.960Z,13.40
2022-11-27T18:47:21.116Z,13.37
2022-11-27T18:49:48.533Z,13.17
2022-11-27T18:52:16.273Z,12.17
2022-11-27T18:54:44.164Z,12.20
2022-11-27T18:57:11.460Z,13.90
2022-11-27T18:59:38.924Z,12.83
2022-11-27T19:02:06.435Z,12.80
2022-11-27T19:04:36.394Z,11.13
2022-11-27T19:07:03.558Z,12.27
2022-11-27T19:09:30.638Z,13.40
2022-11-27T19:11:57.794Z,12.97
2022-11-27T19:14:24.935Z,11.67
2022-11-27T19:16:52.235Z,11.33
2022-11-27T19:22:08.218Z,12.63
2022-11-27T19:24:35.359Z,13.30
2022-11-27T19:27:02.604Z,12.50
2022-11-27T19:29:29.805Z,13.10
2022-11-27T19:31:58.933Z,12.43
2022-11-27T19:34:28.690Z,13.10
2022-11-27T19:36:59.157Z,15.47
2022-11-27T19:39:27.239Z,14.27
2022-11-27T19:41:54.579Z,14.83
2022-11-27T19:44:21.673Z,14.47
2022-11-27T19:46:48.774Z,13.37
2022-11-27T19:49:17.926Z,13.90
2022-11-27T19:51:45.441Z,17.37
2022-11-27T19:54:13.460Z,14.63
2022-11-27T19:56:42.226Z,14.37
2022-11-27T19:59:09.678Z,14.37
2022-11-27T20:01:38.111Z,15.60
2022-11-27T20:04:05.692Z,17.83
2022-11-27T20:06:32.818Z,15.47
2022-11-27T20:09:01.078Z,15.50
2022-11-27T20:11:34.139Z,14.77
2022-11-27T20:14:02.076Z,14.57
2022-11-27T20:16:29.234Z,15.50
2022-11-27T20:18:56.446Z,15.57
2022-11-27T20:21:24.084Z,15.07
2022-11-27T20:23:51.979Z,16.33
2022-11-27T20:26:20.028Z,15.73
2022-11-27T20:28:47.277Z,15.37
2022-11-27T20:31:15.361Z,16.30
2022-11-27T20:33:42.746Z,15.23
2022-11-27T20:36:13.520Z,15.03
2022-11-27T20:38:40.616Z,15.30
2022-11-27T20:41:11.155Z,15.47
2022-11-27T20:43:38.322Z,14.77
2022-11-27T20:46:05.776Z,14.03
2022-11-27T20:48:32.908Z,15.90
2022-11-27T20:51:10.198Z,12.70
2022-11-27T20:53:37.463Z,16.37
2022-11-27T20:56:05.143Z,14.43
2022-11-27T20:58:32.280Z,13.60
2022-11-27T21:01:00.142Z,14.37
2022-11-27T21:03:28.003Z,14.60
2022-11-27T21:05:55.114Z,13.13
2022-11-27T21:08:22.474Z,14.40
2022-11-27T21:10:50.584Z,12.73
2022-11-27T21:13:17.923Z,13.83
2022-11-27T21:15:45.678Z,14.47
2022-11-27T21:18:12.820Z,14.70
2022-11-27T21:20:40.482Z,15.37
2022-11-27T21:23:07.689Z,14.60
2022-11-27T21:25:34.887Z,14.37
2022-11-27T21:28:01.993Z,13.10
2022-11-27T21:30:29.086Z,13.50
2022-11-27T21:32:56.298Z,13.73
2022-11-27T21:35:26.394Z,13.07
2022-11-27T21:37:55.817Z,16.20
2022-11-27T21:40:23.105Z,15.50
2022-11-27T21:42:52.013Z,13.80
2022-11-27T21:45:19.172Z,14.47
2022-11-27T21:47:46.560Z,15.70
2022-11-27T21:50:14.118Z,14.97
2022-11-27T21:52:41.224Z,15.00
2022-11-27T21:55:11.992Z,12.43
2022-11-27T21:57:40.154Z,15.00
2022-11-27T22:00:09.141Z,14.20
2022-11-27T22:02:36.310Z,14.07
2022-11-27T22:05:03.553Z,14.10
2022-11-27T22:07:30.676Z,14.27
2022-11-27T22:09:57.909Z,14.83
2022-11-27T22:12:25.058Z,14.33
2022-11-27T22:14:52.244Z,14.57
2022-11-27T22:17:19.427Z,14.80
2022-11-27T22:19:46.636Z,14.97
2022-11-27T22:22:13.729Z,12.57
2022-11-27T22:24:41.136Z,14.80
2022-11-27T22:27:08.513Z,14.80
2022-11-27T22:29:35.640Z,14.63
2022-11-27T22:32:02.726Z,12.80
2022-11-27T22:34:29.838Z,14.80
2022-11-27T22:36:56.932Z,14.43
2022-11-27T22:39:24.070Z,13.73
2022-11-27T22:41:51.215Z,13.53
2022-11-27T22:44:19.062Z,15.43
2022-11-27T22:46:46.262Z,14.80
2022-11-27T22:49:14.504Z,14.93
2022-11-27T22:51:41.660Z,13.10
2022-11-27T22:54:10.295Z,15.03
2022-11-27T22:56:37.568Z,15.60
2022-11-27T22:59:31.863Z,12.53
2022-11-27T23:01:52.232Z,12.63
2022-11-27T23:04:19.324Z,12.90
2022-11-27T23:06:48.521Z,12.60
2022-11-27T23:09:16.377Z,13.63
2022-11-27T23:11:43.478Z,12.93
2022-11-27T23:14:10.577Z,14.13
2022-11-27T23:16:37.790Z,14.00
2022-11-27T23:19:04.907Z,15.40
2022-11-27T23:21:35.269Z,14.30
2022-11-27T23:24:02.360Z,13.53
2022-11-27T23:26:29.541Z,14.70
2022-11-27T23:28:56.675Z,12.77
2022-11-27T23:31:32.133Z,13.20
2022-11-27T23:33:59.495Z,13.07
2022-11-27T23:36:26.606Z,12.33
2022-11-27T23:38:53.843Z,12.10
2022-11-27T23:41:22.035Z,12.00
2022-11-27T23:43:49.276Z,14.17
2022-11-27T23:46:17.153Z,12.53
2022-11-27T23:48:44.319Z,12.70
2022-11-27T23:51:15.060Z,12.03
2022-11-27T23:53:42.390Z,12.23
2022-11-27T23:56:10.254Z,12.30
2022-11-27T23:58:39.330Z,12.93
